LIMH 200055Z AUTO 01005KT //// 03/M04 Q1039 LIMH 192355Z AUTO 01008KT //// 02/M03 Q1039 LIMH 192255Z AUTO 04008KT //// 02/M03 Q1039 LIMH 192155Z AUTO VRB03KT //// 01/M01 Q1039 LIMH 192055Z AUTO 29007KT 270V340 //// 02/M03 Q1039 LIMH 191955Z AUTO 36004KT //// 02/M02 Q1039 LIMH 191855Z AUTO 31005KT //// 02/M02 Q1039 LIMH 191755Z AUTO 27004KT 200V330 //// 03/M01 Q1038 LIMH 191655Z AUTO 22005KT 150V290 //// 02/01 Q1038 LIMH 191555Z AUTO 21008KT //// 02/02 Q1038 LIMH 191455Z AUTO 24004KT //// 05/02 Q1038 LIMH 191355Z AUTO 22004KT 180V270 //// 05/01 Q1038 LIMH 191255Z AUTO 21006KT 190V250 //// 04/01 Q1038 LIMH 191155Z AUTO 22006KT 200V270 //// 03/01 Q1038 LIMH 191055Z AUTO 21006KT //// 02/01 Q1038 LIMH 190955Z AUTO 20005KT //// 02/01 Q1038 LIMH 190855Z AUTO 20003KT //// 01/M00 Q1038 LIMH 190755Z AUTO 21006KT //// 01/M00 Q1037 LIMH 190655Z AUTO 21006KT //// 01/M00 Q1037 LIMH 190555Z AUTO 21005KT //// 01/00 Q1037 LIMH 190455Z AUTO 20006KT //// 00/M00 Q1036 LIMH 190355Z AUTO 21007KT //// M00/M01 Q1036 LIMH 190255Z AUTO 23004KT //// M00/M01 Q1036 LIMH 190155Z AUTO 21005KT 140V240 //// 00/M01 Q1036 LIMH 190055Z AUTO 22006KT //// 00/M01 Q1036 LIMH 182355Z AUTO 25004KT //// 00/M00 Q1036 LIMH 182255Z AUTO 10008KT //// 00/M00 Q1037 LIMH 182155Z AUTO 15004KT //// 01/M01 Q1037 LIMH 182055Z AUTO VRB01KT //// 02/02 Q1036 LIMH 181955Z AUTO VRB02KT //// 03/01 Q1036 LIMH 181855Z AUTO VRB01KT //// 03/01 Q1036 LIMH 181755Z AUTO 22003KT //// 03/01 Q1036 LIMH 181655Z AUTO 14002KT //// 04/01 Q1035 LIMH 181555Z AUTO VRB03KT //// 05/01 Q1035 LIMH 181455Z AUTO 20004KT 140V240 //// 03/01 Q1035 LIMH 181355Z AUTO 22005KT //// 05/01 Q1035

METAR Messwerte "PIAN ROSA (MTN T" LIMH

Zurück zur Übersicht

Ortsname
Ländercode / m ü. NN
Zeit Temperatur Taupunkt Rel.
Luftfeuchte
Luftdruck:
Altimeter
NN
Station
Wind in Beaufort
(Knoten)
Sichtweite
(Meter)
Wolken
(Meter über Grund)
Wettererscheinung
PIAN ROSA (MTN T
IT 3473
Fr 20.05. 02:553-460 %1039
1060
678
N 2 (5)   
PIAN ROSA (MTN T
IT 3473
Fr 20.05. 01:552-369 %1039
1062
678
N 3 (8)   
PIAN ROSA (MTN T
IT 3473
Fr 20.05. 00:552-369 %1039
1062
678
NO 3 (8)   
PIAN ROSA (MTN T
IT 3473
Do 19.05. 23:551-186 %1039
1064
678
Uml 2 (3)   
PIAN ROSA (MTN T
IT 3473
Do 19.05. 22:552-369 %1039
1062
678
WNW 3 (7)
W - NNW
   
PIAN ROSA (MTN T
IT 3473
Do 19.05. 21:552-275 %1039
1062
678
N 2 (4)   
PIAN ROSA (MTN T
IT 3473
Do 19.05. 20:552-275 %1039
1062
678
NW 2 (5)   
PIAN ROSA (MTN T
IT 3473
Do 19.05. 19:553-175 %1038
1059
677
W 2 (4)
SSW - NNW
   
PIAN ROSA (MTN T
IT 3473
Do 19.05. 18:552193 %1038
1061
677
SW 2 (5)
SSO - WNW
   
PIAN ROSA (MTN T
IT 3473
Do 19.05. 17:5522100 %1038
1061
677
SSW 3 (8)   
PIAN ROSA (MTN T
IT 3473
Do 19.05. 16:555281 %1038
1055
677
WSW 2 (4)   
PIAN ROSA (MTN T
IT 3473
Do 19.05. 15:555175 %1038
1055
677
SW 2 (4)
S - W
   
PIAN ROSA (MTN T
IT 3473
Do 19.05. 14:554181 %1038
1057
677
SSW 2 (6)
S - WSW
   
PIAN ROSA (MTN T
IT 3473
Do 19.05. 13:553187 %1038
1059
677
SW 2 (6)
SSW - W
   
PIAN ROSA (MTN T
IT 3473
Do 19.05. 12:552193 %1038
1061
677
SSW 2 (6)   
PIAN ROSA (MTN T
IT 3473
Do 19.05. 11:552193 %1038
1061
677
SSW 2 (5)   
PIAN ROSA (MTN T
IT 3473
Do 19.05. 10:551-093 %1038
1063
677
SSW 2 (3)   
PIAN ROSA (MTN T
IT 3473
Do 19.05. 09:551-093 %1037
1061
677
SSW 2 (6)   
PIAN ROSA (MTN T
IT 3473
Do 19.05. 08:551-093 %1037
1061
677
SSW 2 (6)   
PIAN ROSA (MTN T
IT 3473
Do 19.05. 07:551093 %1037
1061
677
SSW 2 (5)   
PIAN ROSA (MTN T
IT 3473
Do 19.05. 06:550-0100 %1036
1062
676
SSW 2 (6)   
PIAN ROSA (MTN T
IT 3473
Do 19.05. 05:55-0-193 %1036
1062
676
SSW 3 (7)   
PIAN ROSA (MTN T
IT 3473
Do 19.05. 04:55-0-193 %1036
1062
676
SW 2 (4)   
PIAN ROSA (MTN T
IT 3473
Do 19.05. 03:550-193 %1036
1062
676
SSW 2 (5)
SO - WSW
   
PIAN ROSA (MTN T
IT 3473
Do 19.05. 02:550-193 %1036
1062
676
SW 2 (6)   
PIAN ROSA (MTN T
IT 3473
Do 19.05. 01:550-0100 %1036
1062
676
WSW 2 (4)   
PIAN ROSA (MTN T
IT 3473
Do 19.05. 00:550-0100 %1037
1063
677
O 3 (8)   
PIAN ROSA (MTN T
IT 3473
Mi 18.05. 23:551-186 %1037
1061
677
SSO 2 (4)   
PIAN ROSA (MTN T
IT 3473
Mi 18.05. 22:5522100 %1036
1059
676
Uml 1 (1)   
PIAN ROSA (MTN T
IT 3473
Mi 18.05. 21:553187 %1036
1057
676
Uml 1 (2)   
PIAN ROSA (MTN T
IT 3473
Mi 18.05. 20:553187 %1036
1057
676
Uml 1 (1)   
PIAN ROSA (MTN T
IT 3473
Mi 18.05. 19:553187 %1036
1057
676
SW 2 (3)   
PIAN ROSA (MTN T
IT 3473
Mi 18.05. 18:554181 %1035
1054
675
SO 1 (2)   
PIAN ROSA (MTN T
IT 3473
Mi 18.05. 17:555175 %1035
1052
675
Uml 2 (3)   
PIAN ROSA (MTN T
IT 3473
Mi 18.05. 16:553187 %1035
1056
675
SSW 2 (4)
SO - WSW
   
PIAN ROSA (MTN T
IT 3473
Mi 18.05. 15:555175 %1035
1052
675
SW 2 (5)   

Altimeter: Einstellung am Altimeter (Höhenmesser), die Höhe 0 muss auf diesen Luftdruckwert zeigen, damit das Gerät die Stationshöhe richtig anzeigt.

NN: Luftdruck reduziert auf "Normal Null", auf Meereshöhe, dieser von der Temperatur abhängige Wert wird bisweilen unkorrekt einfach als "Luftdruck" bezeichnet. Eigentlich nur eine fiktive Größe, die es erlaubt, Stationen auf unterschiedlichen Höhen miteinander zu vergleichen.

Station: Realer Luftdruck an der Station.